sensor_id;sensor_type;location;lat;lon;timestamp;P1;durP1;ratioP1;P2;durP2;ratioP2
57565;SDS011;63999;43.882;-0.310;2023-04-03T00:01:16;12.50;;;2.20;;
57565;SDS011;63999;43.882;-0.310;2023-04-03T00:03:42;8.55;;;2.08;;
57565;SDS011;63999;43.882;-0.310;2023-04-03T00:06:08;9.52;;;1.80;;
57565;SDS011;63999;43.882;-0.310;2023-04-03T00:08:36;8.63;;;1.83;;
57565;SDS011;63999;43.882;-0.310;2023-04-03T00:11:03;6.85;;;1.80;;
57565;SDS011;63999;43.882;-0.310;2023-04-03T00:13:29;10.75;;;2.40;;
57565;SDS011;63999;43.882;-0.310;2023-04-03T00:15:56;7.68;;;1.85;;
57565;SDS011;63999;43.882;-0.310;2023-04-03T00:18:22;8.90;;;2.10;;
57565;SDS011;63999;43.882;-0.310;2023-04-03T00:20:48;5.85;;;2.00;;
57565;SDS011;63999;43.882;-0.310;2023-04-03T00:23:14;10.65;;;2.13;;
57565;SDS011;63999;43.882;-0.310;2023-04-03T00:25:40;8.02;;;1.92;;
57565;SDS011;63999;43.882;-0.310;2023-04-03T00:28:06;10.05;;;1.92;;
57565;SDS011;63999;43.882;-0.310;2023-04-03T00:30:32;5.50;;;1.67;;
57565;SDS011;63999;43.882;-0.310;2023-04-03T00:32:58;10.50;;;1.92;;
57565;SDS011;63999;43.882;-0.310;2023-04-03T00:35:26;8.45;;;2.15;;
57565;SDS011;63999;43.882;-0.310;2023-04-03T00:37:52;7.50;;;1.80;;
57565;SDS011;63999;43.882;-0.310;2023-04-03T00:40:19;7.03;;;1.92;;
57565;SDS011;63999;43.882;-0.310;2023-04-03T00:42:47;5.78;;;1.80;;
57565;SDS011;63999;43.882;-0.310;2023-04-03T00:47:50;7.55;;;1.70;;
57565;SDS011;63999;43.882;-0.310;2023-04-03T00:50:16;8.13;;;1.83;;
57565;SDS011;63999;43.882;-0.310;2023-04-03T00:52:43;9.48;;;2.28;;
57565;SDS011;63999;43.882;-0.310;2023-04-03T00:55:11;6.60;;;2.00;;
57565;SDS011;63999;43.882;-0.310;2023-04-03T00:57:39;8.57;;;2.00;;
57565;SDS011;63999;43.882;-0.310;2023-04-03T01:00:08;8.38;;;2.00;;
57565;SDS011;63999;43.882;-0.310;2023-04-03T01:02:37;6.15;;;1.77;;
57565;SDS011;63999;43.882;-0.310;2023-04-03T01:05:06;5.82;;;1.65;;
57565;SDS011;63999;43.882;-0.310;2023-04-03T01:07:32;6.82;;;1.63;;
57565;SDS011;63999;43.882;-0.310;2023-04-03T01:10:04;8.57;;;1.77;;
57565;SDS011;63999;43.882;-0.310;2023-04-03T01:12:33;5.60;;;1.73;;
57565;SDS011;63999;43.882;-0.310;2023-04-03T01:15:11;5.75;;;1.77;;
57565;SDS011;63999;43.882;-0.310;2023-04-03T01:17:44;5.72;;;1.83;;
57565;SDS011;63999;43.882;-0.310;2023-04-03T01:25:39;7.90;;;2.22;;
57565;SDS011;63999;43.882;-0.310;2023-04-03T01:28:05;3.72;;;1.30;;
57565;SDS011;63999;43.882;-0.310;2023-04-03T01:30:46;10.50;;;2.10;;
57565;SDS011;63999;43.882;-0.310;2023-04-03T01:33:13;9.38;;;1.75;;
57565;SDS011;63999;43.882;-0.310;2023-04-03T01:35:39;5.90;;;1.63;;
57565;SDS011;63999;43.882;-0.310;2023-04-03T01:38:05;7.13;;;1.70;;
57565;SDS011;63999;43.882;-0.310;2023-04-03T01:40:31;6.82;;;1.80;;
57565;SDS011;63999;43.882;-0.310;2023-04-03T01:42:56;11.13;;;2.55;;
57565;SDS011;63999;43.882;-0.310;2023-04-03T01:45:22;5.03;;;1.60;;
57565;SDS011;63999;43.882;-0.310;2023-04-03T01:47:48;6.38;;;1.42;;
57565;SDS011;63999;43.882;-0.310;2023-04-03T01:50:14;6.75;;;1.98;;
57565;SDS011;63999;43.882;-0.310;2023-04-03T01:52:40;5.30;;;1.52;;
57565;SDS011;63999;43.882;-0.310;2023-04-03T01:55:06;8.23;;;1.98;;
57565;SDS011;63999;43.882;-0.310;2023-04-03T01:57:32;6.28;;;1.95;;
57565;SDS011;63999;43.882;-0.310;2023-04-03T01:59:57;7.03;;;1.65;;
57565;SDS011;63999;43.882;-0.310;2023-04-03T02:02:23;7.18;;;2.05;;
57565;SDS011;63999;43.882;-0.310;2023-04-03T02:04:49;3.63;;;1.30;;
57565;SDS011;63999;43.882;-0.310;2023-04-03T02:07:15;5.43;;;1.73;;
57565;SDS011;63999;43.882;-0.310;2023-04-03T02:09:41;9.48;;;2.03;;
57565;SDS011;63999;43.882;-0.310;2023-04-03T02:12:07;8.82;;;1.75;;
57565;SDS011;63999;43.882;-0.310;2023-04-03T02:14:32;8.05;;;1.95;;
57565;SDS011;63999;43.882;-0.310;2023-04-03T02:17:00;5.55;;;1.90;;
57565;SDS011;63999;43.882;-0.310;2023-04-03T02:19:30;7.65;;;1.67;;
57565;SDS011;63999;43.882;-0.310;2023-04-03T02:21:56;6.40;;;1.90;;
57565;SDS011;63999;43.882;-0.310;2023-04-03T02:24:22;9.60;;;1.98;;
57565;SDS011;63999;43.882;-0.310;2023-04-03T02:26:47;8.60;;;1.75;;
57565;SDS011;63999;43.882;-0.310;2023-04-03T02:29:13;5.25;;;1.55;;
57565;SDS011;63999;43.882;-0.310;2023-04-03T02:31:39;7.35;;;1.75;;
57565;SDS011;63999;43.882;-0.310;2023-04-03T02:34:05;9.20;;;1.83;;
57565;SDS011;63999;43.882;-0.310;2023-04-03T02:36:31;8.98;;;1.85;;
57565;SDS011;63999;43.882;-0.310;2023-04-03T02:38:57;7.55;;;1.70;;
57565;SDS011;63999;43.882;-0.310;2023-04-03T02:41:22;8.82;;;2.00;;
57565;SDS011;63999;43.882;-0.310;2023-04-03T02:43:50;8.55;;;1.75;;
57565;SDS011;63999;43.882;-0.310;2023-04-03T02:46:16;8.75;;;1.80;;
57565;SDS011;63999;43.882;-0.310;2023-04-03T02:48:42;8.65;;;1.77;;
57565;SDS011;63999;43.882;-0.310;2023-04-03T02:51:07;6.38;;;1.63;;
57565;SDS011;63999;43.882;-0.310;2023-04-03T02:53:33;10.18;;;2.13;;
57565;SDS011;63999;43.882;-0.310;2023-04-03T02:55:59;8.15;;;1.80;;
57565;SDS011;63999;43.882;-0.310;2023-04-03T02:58:25;8.55;;;1.73;;
57565;SDS011;63999;43.882;-0.310;2023-04-03T03:00:50;7.55;;;1.77;;
57565;SDS011;63999;43.882;-0.310;2023-04-03T03:03:16;7.13;;;1.90;;
57565;SDS011;63999;43.882;-0.310;2023-04-03T03:05:42;9.85;;;2.10;;
57565;SDS011;63999;43.882;-0.310;2023-04-03T03:08:08;5.75;;;1.85;;
57565;SDS011;63999;43.882;-0.310;2023-04-03T03:10:34;6.10;;;1.67;;
57565;SDS011;63999;43.882;-0.310;2023-04-03T03:12:59;6.68;;;1.65;;
57565;SDS011;63999;43.882;-0.310;2023-04-03T03:15:26;6.90;;;1.92;;
57565;SDS011;63999;43.882;-0.310;2023-04-03T03:17:51;7.85;;;1.85;;
57565;SDS011;63999;43.882;-0.310;2023-04-03T03:20:17;5.47;;;1.65;;
57565;SDS011;63999;43.882;-0.310;2023-04-03T03:22:43;10.00;;;2.10;;
57565;SDS011;63999;43.882;-0.310;2023-04-03T03:25:09;5.38;;;1.73;;
57565;SDS011;63999;43.882;-0.310;2023-04-03T03:27:35;6.88;;;1.63;;
57565;SDS011;63999;43.882;-0.310;2023-04-03T03:30:00;7.25;;;1.85;;
57565;SDS011;63999;43.882;-0.310;2023-04-03T03:32:26;9.45;;;2.05;;
57565;SDS011;63999;43.882;-0.310;2023-04-03T03:34:52;10.50;;;1.83;;
57565;SDS011;63999;43.882;-0.310;2023-04-03T03:37:18;6.57;;;1.77;;
57565;SDS011;63999;43.882;-0.310;2023-04-03T03:39:44;4.85;;;1.83;;
57565;SDS011;63999;43.882;-0.310;2023-04-03T03:42:10;5.82;;;1.90;;
57565;SDS011;63999;43.882;-0.310;2023-04-03T03:44:36;7.43;;;2.00;;
57565;SDS011;63999;43.882;-0.310;2023-04-03T03:47:02;7.60;;;1.80;;
57565;SDS011;63999;43.882;-0.310;2023-04-03T03:49:28;8.55;;;2.30;;
57565;SDS011;63999;43.882;-0.310;2023-04-03T03:51:53;6.53;;;2.15;;
57565;SDS011;63999;43.882;-0.310;2023-04-03T03:54:20;8.20;;;2.80;;
57565;SDS011;63999;43.882;-0.310;2023-04-03T03:56:46;10.63;;;3.67;;
57565;SDS011;63999;43.882;-0.310;2023-04-03T03:59:12;7.40;;;2.65;;
57565;SDS011;63999;43.882;-0.310;2023-04-03T04:01:38;6.10;;;2.20;;
57565;SDS011;63999;43.882;-0.310;2023-04-03T04:04:04;8.43;;;2.30;;
57565;SDS011;63999;43.882;-0.310;2023-04-03T04:06:30;5.30;;;2.00;;
57565;SDS011;63999;43.882;-0.310;2023-04-03T04:08:56;9.05;;;2.13;;
57565;SDS011;63999;43.882;-0.310;2023-04-03T04:11:22;7.05;;;2.08;;
57565;SDS011;63999;43.882;-0.310;2023-04-03T04:13:47;10.18;;;2.63;;
57565;SDS011;63999;43.882;-0.310;2023-04-03T04:16:13;6.90;;;2.40;;
57565;SDS011;63999;43.882;-0.310;2023-04-03T04:18:39;6.40;;;2.13;;
57565;SDS011;63999;43.882;-0.310;2023-04-03T04:21:05;5.22;;;1.92;;
57565;SDS011;63999;43.882;-0.310;2023-04-03T04:23:30;11.07;;;2.28;;
57565;SDS011;63999;43.882;-0.310;2023-04-03T04:25:56;10.80;;;2.10;;
57565;SDS011;63999;43.882;-0.310;2023-04-03T04:28:22;7.50;;;2.10;;
57565;SDS011;63999;43.882;-0.310;2023-04-03T04:30:48;7.88;;;2.05;;
57565;SDS011;63999;43.882;-0.310;2023-04-03T04:33:13;6.55;;;2.28;;
57565;SDS011;63999;43.882;-0.310;2023-04-03T04:35:41;6.97;;;1.73;;
57565;SDS011;63999;43.882;-0.310;2023-04-03T04:38:08;5.93;;;1.90;;
57565;SDS011;63999;43.882;-0.310;2023-04-03T04:40:34;7.20;;;1.95;;
57565;SDS011;63999;43.882;-0.310;2023-04-03T04:43:00;8.38;;;2.17;;
57565;SDS011;63999;43.882;-0.310;2023-04-03T04:45:26;7.35;;;1.70;;
57565;SDS011;63999;43.882;-0.310;2023-04-03T04:47:54;8.02;;;1.90;;
57565;SDS011;63999;43.882;-0.310;2023-04-03T04:50:20;8.73;;;1.80;;
57565;SDS011;63999;43.882;-0.310;2023-04-03T04:52:46;6.68;;;1.98;;
57565;SDS011;63999;43.882;-0.310;2023-04-03T04:55:12;6.13;;;1.92;;
57565;SDS011;63999;43.882;-0.310;2023-04-03T04:57:38;8.07;;;2.00;;
57565;SDS011;63999;43.882;-0.310;2023-04-03T05:00:04;8.52;;;1.80;;
57565;SDS011;63999;43.882;-0.310;2023-04-03T05:02:30;4.25;;;1.80;;
57565;SDS011;63999;43.882;-0.310;2023-04-03T05:04:56;4.95;;;1.92;;
57565;SDS011;63999;43.882;-0.310;2023-04-03T05:07:22;11.45;;;2.10;;
57565;SDS011;63999;43.882;-0.310;2023-04-03T05:09:49;6.95;;;1.95;;
57565;SDS011;63999;43.882;-0.310;2023-04-03T05:12:16;6.95;;;1.90;;
57565;SDS011;63999;43.882;-0.310;2023-04-03T05:14:42;7.20;;;1.67;;
57565;SDS011;63999;43.882;-0.310;2023-04-03T05:17:07;6.65;;;1.90;;
57565;SDS011;63999;43.882;-0.310;2023-04-03T05:19:33;7.65;;;2.08;;
57565;SDS011;63999;43.882;-0.310;2023-04-03T05:21:59;4.78;;;1.75;;
57565;SDS011;63999;43.882;-0.310;2023-04-03T05:24:25;9.68;;;1.60;;
57565;SDS011;63999;43.882;-0.310;2023-04-03T05:26:51;6.40;;;2.00;;
57565;SDS011;63999;43.882;-0.310;2023-04-03T05:29:17;6.35;;;1.92;;
57565;SDS011;63999;43.882;-0.310;2023-04-03T05:31:43;6.80;;;1.90;;
57565;SDS011;63999;43.882;-0.310;2023-04-03T05:34:09;5.93;;;2.08;;
57565;SDS011;63999;43.882;-0.310;2023-04-03T05:36:35;5.65;;;1.83;;
57565;SDS011;63999;43.882;-0.310;2023-04-03T05:39:00;7.07;;;1.98;;
57565;SDS011;63999;43.882;-0.310;2023-04-03T05:41:26;9.32;;;1.90;;
57565;SDS011;63999;43.882;-0.310;2023-04-03T05:43:52;7.82;;;2.30;;
57565;SDS011;63999;43.882;-0.310;2023-04-03T05:49:50;9.57;;;2.13;;
57565;SDS011;63999;43.882;-0.310;2023-04-03T05:52:30;6.50;;;2.30;;
57565;SDS011;63999;43.882;-0.310;2023-04-03T05:55:03;10.02;;;2.42;;
57565;SDS011;63999;43.882;-0.310;2023-04-03T05:57:37;6.55;;;1.90;;
57565;SDS011;63999;43.882;-0.310;2023-04-03T06:00:07;9.18;;;2.15;;
57565;SDS011;63999;43.882;-0.310;2023-04-03T06:02:44;8.40;;;2.35;;
57565;SDS011;63999;43.882;-0.310;2023-04-03T06:05:15;7.72;;;2.45;;
57565;SDS011;63999;43.882;-0.310;2023-04-03T06:07:52;9.90;;;3.03;;
57565;SDS011;63999;43.882;-0.310;2023-04-03T06:10:32;7.70;;;2.90;;
57565;SDS011;63999;43.882;-0.310;2023-04-03T06:13:09;6.95;;;2.70;;
57565;SDS011;63999;43.882;-0.310;2023-04-03T06:16:50;7.97;;;2.25;;
57565;SDS011;63999;43.882;-0.310;2023-04-03T06:19:45;8.07;;;2.33;;
57565;SDS011;63999;43.882;-0.310;2023-04-03T06:22:12;6.45;;;2.20;;
57565;SDS011;63999;43.882;-0.310;2023-04-03T06:24:51;6.65;;;2.05;;
57565;SDS011;63999;43.882;-0.310;2023-04-03T06:27:22;6.82;;;2.20;;
57565;SDS011;63999;43.882;-0.310;2023-04-03T06:30:33;4.95;;;1.67;;
57565;SDS011;63999;43.882;-0.310;2023-04-03T06:33:10;4.82;;;1.70;;
57565;SDS011;63999;43.882;-0.310;2023-04-03T06:36:03;7.28;;;1.77;;
57565;SDS011;63999;43.882;-0.310;2023-04-03T06:38:35;6.68;;;2.00;;
57565;SDS011;63999;43.882;-0.310;2023-04-03T06:41:05;5.80;;;2.20;;
57565;SDS011;63999;43.882;-0.310;2023-04-03T06:43:31;6.68;;;2.10;;
57565;SDS011;63999;43.882;-0.310;2023-04-03T06:45:57;5.18;;;1.88;;
57565;SDS011;63999;43.882;-0.310;2023-04-03T06:48:27;6.90;;;2.08;;
57565;SDS011;63999;43.882;-0.310;2023-04-03T06:51:01;6.80;;;1.80;;
57565;SDS011;63999;43.882;-0.310;2023-04-03T06:53:27;7.63;;;1.95;;
57565;SDS011;63999;43.882;-0.310;2023-04-03T06:55:53;5.32;;;1.77;;
57565;SDS011;63999;43.882;-0.310;2023-04-03T06:58:41;4.20;;;1.73;;
57565;SDS011;63999;43.882;-0.310;2023-04-03T07:01:12;7.28;;;2.10;;
57565;SDS011;63999;43.882;-0.310;2023-04-03T07:03:48;6.25;;;2.10;;
57565;SDS011;63999;43.882;-0.310;2023-04-03T07:06:47;5.85;;;2.00;;
57565;SDS011;63999;43.882;-0.310;2023-04-03T07:09:36;7.28;;;2.28;;
57565;SDS011;63999;43.882;-0.310;2023-04-03T07:12:02;8.10;;;2.42;;
57565;SDS011;63999;43.882;-0.310;2023-04-03T07:14:33;6.15;;;2.40;;
57565;SDS011;63999;43.882;-0.310;2023-04-03T07:17:04;5.53;;;2.08;;
57565;SDS011;63999;43.882;-0.310;2023-04-03T07:20:08;6.82;;;2.20;;
57565;SDS011;63999;43.882;-0.310;2023-04-03T07:22:29;6.15;;;2.33;;
57565;SDS011;63999;43.882;-0.310;2023-04-03T07:25:17;5.53;;;2.15;;
57565;SDS011;63999;43.882;-0.310;2023-04-03T07:27:43;7.15;;;2.22;;
57565;SDS011;63999;43.882;-0.310;2023-04-03T07:30:23;6.38;;;2.15;;
57565;SDS011;63999;43.882;-0.310;2023-04-03T07:33:14;6.05;;;2.33;;
57565;SDS011;63999;43.882;-0.310;2023-04-03T07:36:05;7.88;;;2.20;;
57565;SDS011;63999;43.882;-0.310;2023-04-03T07:38:54;4.97;;;2.20;;
57565;SDS011;63999;43.882;-0.310;2023-04-03T07:41:40;4.97;;;2.35;;
57565;SDS011;63999;43.882;-0.310;2023-04-03T07:44:06;7.40;;;2.38;;
57565;SDS011;63999;43.882;-0.310;2023-04-03T07:46:35;7.68;;;2.42;;
57565;SDS011;63999;43.882;-0.310;2023-04-03T07:49:09;7.30;;;2.22;;
57565;SDS011;63999;43.882;-0.310;2023-04-03T07:52:12;5.93;;;2.13;;
57565;SDS011;63999;43.882;-0.310;2023-04-03T07:54:41;7.70;;;2.45;;
57565;SDS011;63999;43.882;-0.310;2023-04-03T07:57:10;4.45;;;2.35;;
57565;SDS011;63999;43.882;-0.310;2023-04-03T07:59:48;5.90;;;2.20;;
57565;SDS011;63999;43.882;-0.310;2023-04-03T08:02:22;7.95;;;2.22;;
57565;SDS011;63999;43.882;-0.310;2023-04-03T08:04:53;6.05;;;2.28;;
57565;SDS011;63999;43.882;-0.310;2023-04-03T08:07:20;6.65;;;2.35;;
57565;SDS011;63999;43.882;-0.310;2023-04-03T08:10:37;5.63;;;1.98;;
57565;SDS011;63999;43.882;-0.310;2023-04-03T08:16:08;5.07;;;2.22;;
57565;SDS011;63999;43.882;-0.310;2023-04-03T08:18:43;4.17;;;2.20;;
57565;SDS011;63999;43.882;-0.310;2023-04-03T08:21:17;7.00;;;2.17;;
57565;SDS011;63999;43.882;-0.310;2023-04-03T08:24:09;8.63;;;2.50;;
57565;SDS011;63999;43.882;-0.310;2023-04-03T08:26:36;6.90;;;2.75;;
57565;SDS011;63999;43.882;-0.310;2023-04-03T08:29:03;7.10;;;2.50;;
57565;SDS011;63999;43.882;-0.310;2023-04-03T08:31:28;5.68;;;2.67;;
57565;SDS011;63999;43.882;-0.310;2023-04-03T08:33:56;8.32;;;2.40;;
57565;SDS011;63999;43.882;-0.310;2023-04-03T08:36:26;7.65;;;3.20;;
57565;SDS011;63999;43.882;-0.310;2023-04-03T08:38:54;5.50;;;2.78;;
57565;SDS011;63999;43.882;-0.310;2023-04-03T08:41:34;6.75;;;2.85;;
57565;SDS011;63999;43.882;-0.310;2023-04-03T08:52:34;5.43;;;2.90;;
57565;SDS011;63999;43.882;-0.310;2023-04-03T08:55:29;6.95;;;2.70;;
57565;SDS011;63999;43.882;-0.310;2023-04-03T08:58:02;4.88;;;2.40;;
57565;SDS011;63999;43.882;-0.310;2023-04-03T09:00:47;7.38;;;3.28;;
57565;SDS011;63999;43.882;-0.310;2023-04-03T09:03:21;8.15;;;3.15;;
57565;SDS011;63999;43.882;-0.310;2023-04-03T09:05:59;8.93;;;3.08;;
57565;SDS011;63999;43.882;-0.310;2023-04-03T09:08:33;5.13;;;2.95;;
57565;SDS011;63999;43.882;-0.310;2023-04-03T09:17:07;3.95;;;2.65;;
57565;SDS011;63999;43.882;-0.310;2023-04-03T09:19:49;6.30;;;3.28;;
57565;SDS011;63999;43.882;-0.310;2023-04-03T09:22:43;5.07;;;2.67;;
57565;SDS011;63999;43.882;-0.310;2023-04-03T09:25:14;6.10;;;2.80;;
57565;SDS011;63999;43.882;-0.310;2023-04-03T09:28:01;5.72;;;2.55;;
57565;SDS011;63999;43.882;-0.310;2023-04-03T09:30:28;4.28;;;2.20;;
57565;SDS011;63999;43.882;-0.310;2023-04-03T09:32:55;6.53;;;3.28;;
57565;SDS011;63999;43.882;-0.310;2023-04-03T09:35:26;6.38;;;2.92;;
57565;SDS011;63999;43.882;-0.310;2023-04-03T09:37:59;5.47;;;2.67;;
57565;SDS011;63999;43.882;-0.310;2023-04-03T09:42:56;5.15;;;2.80;;
57565;SDS011;63999;43.882;-0.310;2023-04-03T09:45:25;3.75;;;2.45;;
57565;SDS011;63999;43.882;-0.310;2023-04-03T09:51:42;6.15;;;2.20;;
57565;SDS011;63999;43.882;-0.310;2023-04-03T09:57:09;3.92;;;1.90;;
57565;SDS011;63999;43.882;-0.310;2023-04-03T09:59:40;3.42;;;1.67;;
57565;SDS011;63999;43.882;-0.310;2023-04-03T10:12:22;4.18;;;1.60;;
57565;SDS011;63999;43.882;-0.310;2023-04-03T10:17:46;3.05;;;1.90;;
57565;SDS011;63999;43.882;-0.310;2023-04-03T10:20:59;4.18;;;2.03;;
57565;SDS011;63999;43.882;-0.310;2023-04-03T10:23:17;4.63;;;1.98;;
57565;SDS011;63999;43.882;-0.310;2023-04-03T10:26:11;2.58;;;1.70;;
57565;SDS011;63999;43.882;-0.310;2023-04-03T10:29:27;3.30;;;2.00;;
57565;SDS011;63999;43.882;-0.310;2023-04-03T10:41:16;3.75;;;1.70;;
57565;SDS011;63999;43.882;-0.310;2023-04-03T10:43:44;2.33;;;1.40;;
57565;SDS011;63999;43.882;-0.310;2023-04-03T10:47:07;2.95;;;1.50;;
57565;SDS011;63999;43.882;-0.310;2023-04-03T10:55:24;3.55;;;1.30;;
57565;SDS011;63999;43.882;-0.310;2023-04-03T10:58:01;3.70;;;1.40;;
57565;SDS011;63999;43.882;-0.310;2023-04-03T11:00:39;1.50;;;1.10;;
57565;SDS011;63999;43.882;-0.310;2023-04-03T11:03:17;2.85;;;1.30;;
57565;SDS011;63999;43.882;-0.310;2023-04-03T11:06:02;3.30;;;1.60;;
57565;SDS011;63999;43.882;-0.310;2023-04-03T11:08:45;3.97;;;1.60;;
57565;SDS011;63999;43.882;-0.310;2023-04-03T11:11:31;2.28;;;1.52;;
57565;SDS011;63999;43.882;-0.310;2023-04-03T11:22:43;2.55;;;1.10;;
57565;SDS011;63999;43.882;-0.310;2023-04-03T11:25:29;3.35;;;1.33;;
57565;SDS011;63999;43.882;-0.310;2023-04-03T11:28:01;3.00;;;1.27;;
57565;SDS011;63999;43.882;-0.310;2023-04-03T11:30:33;1.80;;;0.95;;
57565;SDS011;63999;43.882;-0.310;2023-04-03T11:33:21;2.60;;;1.42;;
57565;SDS011;63999;43.882;-0.310;2023-04-03T11:35:59;1.98;;;1.00;;
57565;SDS011;63999;43.882;-0.310;2023-04-03T11:38:46;2.22;;;1.30;;
57565;SDS011;63999;43.882;-0.310;2023-04-03T11:41:21;2.83;;;1.00;;
57565;SDS011;63999;43.882;-0.310;2023-04-03T11:58:23;5.68;;;1.50;;
57565;SDS011;63999;43.882;-0.310;2023-04-03T12:05:55;1.10;;;0.90;;
57565;SDS011;63999;43.882;-0.310;2023-04-03T12:14:13;1.40;;;0.80;;
57565;SDS011;63999;43.882;-0.310;2023-04-03T12:22:17;4.03;;;1.10;;
57565;SDS011;63999;43.882;-0.310;2023-04-03T12:24:47;1.83;;;0.75;;
57565;SDS011;63999;43.882;-0.310;2023-04-03T12:30:04;3.97;;;1.23;;
57565;SDS011;63999;43.882;-0.310;2023-04-03T12:33:02;2.33;;;0.80;;
57565;SDS011;63999;43.882;-0.310;2023-04-03T12:36:15;4.78;;;2.97;;
57565;SDS011;63999;43.882;-0.310;2023-04-03T12:39:28;1.05;;;0.90;;
57565;SDS011;63999;43.882;-0.310;2023-04-03T12:51:06;3.28;;;1.40;;
57565;SDS011;63999;43.882;-0.310;2023-04-03T12:53:38;2.17;;;1.00;;
57565;SDS011;63999;43.882;-0.310;2023-04-03T12:56:25;1.88;;;0.98;;
57565;SDS011;63999;43.882;-0.310;2023-04-03T13:01:56;2.90;;;1.20;;
57565;SDS011;63999;43.882;-0.310;2023-04-03T13:04:52;2.45;;;1.20;;
57565;SDS011;63999;43.882;-0.310;2023-04-03T13:07:32;2.35;;;1.00;;
57565;SDS011;63999;43.882;-0.310;2023-04-03T13:10:14;2.90;;;1.30;;
57565;SDS011;63999;43.882;-0.310;2023-04-03T13:12:49;2.08;;;0.95;;
57565;SDS011;63999;43.882;-0.310;2023-04-03T13:15:48;1.65;;;0.90;;
57565;SDS011;63999;43.882;-0.310;2023-04-03T13:18:29;3.13;;;1.30;;
57565;SDS011;63999;43.882;-0.310;2023-04-03T13:21:15;1.17;;;0.70;;
57565;SDS011;63999;43.882;-0.310;2023-04-03T13:23:46;3.00;;;1.30;;
57565;SDS011;63999;43.882;-0.310;2023-04-03T13:26:45;2.58;;;1.20;;
57565;SDS011;63999;43.882;-0.310;2023-04-03T13:29:21;3.35;;;1.20;;
57565;SDS011;63999;43.882;-0.310;2023-04-03T13:35:01;2.10;;;1.20;;
57565;SDS011;63999;43.882;-0.310;2023-04-03T13:37:31;2.13;;;1.00;;
57565;SDS011;63999;43.882;-0.310;2023-04-03T13:43:01;1.80;;;1.00;;
57565;SDS011;63999;43.882;-0.310;2023-04-03T13:48:52;2.00;;;1.30;;
57565;SDS011;63999;43.882;-0.310;2023-04-03T13:51:26;3.88;;;1.25;;
57565;SDS011;63999;43.882;-0.310;2023-04-03T13:54:34;2.85;;;1.20;;
57565;SDS011;63999;43.882;-0.310;2023-04-03T13:57:02;2.55;;;1.30;;
57565;SDS011;63999;43.882;-0.310;2023-04-03T14:03:24;2.65;;;1.00;;
57565;SDS011;63999;43.882;-0.310;2023-04-03T14:06:30;3.53;;;1.20;;
57565;SDS011;63999;43.882;-0.310;2023-04-03T14:08:55;1.45;;;1.00;;
57565;SDS011;63999;43.882;-0.310;2023-04-03T14:11:26;3.35;;;1.17;;
57565;SDS011;63999;43.882;-0.310;2023-04-03T14:14:18;2.20;;;1.10;;
57565;SDS011;63999;43.882;-0.310;2023-04-03T14:16:49;2.28;;;1.08;;
57565;SDS011;63999;43.882;-0.310;2023-04-03T14:22:26;1.25;;;0.90;;
57565;SDS011;63999;43.882;-0.310;2023-04-03T14:25:03;1.33;;;0.90;;
57565;SDS011;63999;43.882;-0.310;2023-04-03T14:27:41;1.95;;;1.00;;
57565;SDS011;63999;43.882;-0.310;2023-04-03T14:30:19;3.35;;;1.30;;
57565;SDS011;63999;43.882;-0.310;2023-04-03T14:32:48;3.00;;;1.40;;
57565;SDS011;63999;43.882;-0.310;2023-04-03T14:36:00;1.73;;;0.90;;
57565;SDS011;63999;43.882;-0.310;2023-04-03T14:38:30;2.45;;;1.00;;
57565;SDS011;63999;43.882;-0.310;2023-04-03T14:41:14;3.70;;;1.20;;
57565;SDS011;63999;43.882;-0.310;2023-04-03T14:43:43;1.30;;;1.00;;
57565;SDS011;63999;43.882;-0.310;2023-04-03T14:49:23;1.92;;;1.10;;
57565;SDS011;63999;43.882;-0.310;2023-04-03T14:51:57;2.55;;;1.10;;
57565;SDS011;63999;43.882;-0.310;2023-04-03T14:55:09;2.35;;;1.30;;
57565;SDS011;63999;43.882;-0.310;2023-04-03T14:57:18;3.78;;;1.40;;
57565;SDS011;63999;43.882;-0.310;2023-04-03T14:59:47;2.28;;;0.77;;
57565;SDS011;63999;43.882;-0.310;2023-04-03T15:05:08;1.98;;;1.15;;
57565;SDS011;63999;43.882;-0.310;2023-04-03T15:07:41;1.63;;;1.00;;
57565;SDS011;63999;43.882;-0.310;2023-04-03T15:10:49;1.88;;;1.08;;
57565;SDS011;63999;43.882;-0.310;2023-04-03T15:13:32;3.85;;;1.15;;
57565;SDS011;63999;43.882;-0.310;2023-04-03T15:16:17;1.75;;;1.00;;
57565;SDS011;63999;43.882;-0.310;2023-04-03T15:18:53;2.80;;;1.20;;
57565;SDS011;63999;43.882;-0.310;2023-04-03T15:24:25;2.60;;;1.10;;
57565;SDS011;63999;43.882;-0.310;2023-04-03T15:27:09;1.63;;;1.02;;
57565;SDS011;63999;43.882;-0.310;2023-04-03T15:29:37;4.90;;;1.27;;
57565;SDS011;63999;43.882;-0.310;2023-04-03T15:32:26;2.95;;;1.27;;
57565;SDS011;63999;43.882;-0.310;2023-04-03T15:34:52;2.15;;;0.95;;
57565;SDS011;63999;43.882;-0.310;2023-04-03T15:37:27;2.47;;;1.00;;
57565;SDS011;63999;43.882;-0.310;2023-04-03T15:39:57;1.55;;;1.10;;
57565;SDS011;63999;43.882;-0.310;2023-04-03T15:42:24;2.90;;;1.10;;
57565;SDS011;63999;43.882;-0.310;2023-04-03T15:44:53;1.45;;;1.00;;
57565;SDS011;63999;43.882;-0.310;2023-04-03T15:47:23;2.50;;;1.40;;
57565;SDS011;63999;43.882;-0.310;2023-04-03T15:50:01;1.95;;;1.08;;
57565;SDS011;63999;43.882;-0.310;2023-04-03T15:52:32;14.90;;;6.45;;
57565;SDS011;63999;43.882;-0.310;2023-04-03T15:55:10;4.03;;;1.65;;
57565;SDS011;63999;43.882;-0.310;2023-04-03T15:57:46;3.30;;;1.40;;
57565;SDS011;63999;43.882;-0.310;2023-04-03T16:00:20;3.25;;;1.52;;
57565;SDS011;63999;43.882;-0.310;2023-04-03T16:03:00;2.92;;;1.60;;
57565;SDS011;63999;43.882;-0.310;2023-04-03T16:05:46;2.33;;;1.30;;
57565;SDS011;63999;43.882;-0.310;2023-04-03T16:08:41;2.88;;;1.30;;
57565;SDS011;63999;43.882;-0.310;2023-04-03T16:11:12;2.47;;;1.48;;
57565;SDS011;63999;43.882;-0.310;2023-04-03T16:14:05;4.90;;;1.77;;
57565;SDS011;63999;43.882;-0.310;2023-04-03T16:19:16;2.53;;;1.40;;
57565;SDS011;63999;43.882;-0.310;2023-04-03T16:21:57;2.10;;;1.30;;
57565;SDS011;63999;43.882;-0.310;2023-04-03T16:24:46;2.83;;;1.30;;
57565;SDS011;63999;43.882;-0.310;2023-04-03T16:33:21;4.63;;;1.77;;
57565;SDS011;63999;43.882;-0.310;2023-04-03T16:35:55;3.22;;;1.67;;
57565;SDS011;63999;43.882;-0.310;2023-04-03T16:38:41;4.25;;;2.05;;
57565;SDS011;63999;43.882;-0.310;2023-04-03T16:41:22;3.10;;;1.70;;
57565;SDS011;63999;43.882;-0.310;2023-04-03T16:43:50;3.23;;;1.93;;
57565;SDS011;63999;43.882;-0.310;2023-04-03T16:46:45;4.03;;;2.25;;
57565;SDS011;63999;43.882;-0.310;2023-04-03T16:49:37;5.23;;;2.27;;
57565;SDS011;63999;43.882;-0.310;2023-04-03T16:52:16;2.17;;;1.60;;
57565;SDS011;63999;43.882;-0.310;2023-04-03T16:54:47;2.90;;;1.40;;
57565;SDS011;63999;43.882;-0.310;2023-04-03T16:57:36;4.10;;;1.45;;
57565;SDS011;63999;43.882;-0.310;2023-04-03T17:00:39;2.55;;;1.48;;
57565;SDS011;63999;43.882;-0.310;2023-04-03T17:03:27;2.15;;;1.15;;
57565;SDS011;63999;43.882;-0.310;2023-04-03T17:06:24;2.35;;;1.10;;
57565;SDS011;63999;43.882;-0.310;2023-04-03T17:09:02;3.53;;;1.00;;
57565;SDS011;63999;43.882;-0.310;2023-04-03T17:11:31;2.88;;;1.70;;
57565;SDS011;63999;43.882;-0.310;2023-04-03T17:14:22;2.75;;;1.58;;
57565;SDS011;63999;43.882;-0.310;2023-04-03T17:17:20;2.47;;;1.40;;
57565;SDS011;63999;43.882;-0.310;2023-04-03T17:19:53;1.98;;;0.90;;
57565;SDS011;63999;43.882;-0.310;2023-04-03T17:22:24;2.13;;;0.98;;
57565;SDS011;63999;43.882;-0.310;2023-04-03T17:25:14;1.88;;;1.10;;
57565;SDS011;63999;43.882;-0.310;2023-04-03T17:28:12;4.70;;;1.02;;
57565;SDS011;63999;43.882;-0.310;2023-04-03T17:34:04;4.65;;;1.30;;
57565;SDS011;63999;43.882;-0.310;2023-04-03T17:36:43;2.75;;;1.25;;
57565;SDS011;63999;43.882;-0.310;2023-04-03T17:39:34;2.85;;;1.00;;
57565;SDS011;63999;43.882;-0.310;2023-04-03T17:42:22;1.80;;;1.08;;
57565;SDS011;63999;43.882;-0.310;2023-04-03T17:45:08;2.65;;;0.90;;
57565;SDS011;63999;43.882;-0.310;2023-04-03T17:48:02;2.58;;;1.05;;
57565;SDS011;63999;43.882;-0.310;2023-04-03T17:50:51;2.97;;;0.98;;
57565;SDS011;63999;43.882;-0.310;2023-04-03T17:53:51;2.20;;;0.93;;